createdAt,value
2019-02-10T00:03:41.029Z,5.77
2019-02-10T00:06:09.827Z,5.77
2019-02-10T00:08:38.457Z,5.76
2019-02-10T00:11:07.073Z,5.72
2019-02-10T00:13:36.629Z,5.73
2019-02-10T00:16:11.602Z,5.60
2019-02-10T00:18:40.148Z,5.60
2019-02-10T00:21:08.787Z,5.54
2019-02-10T00:23:37.346Z,5.49
2019-02-10T00:26:06.049Z,5.51
2019-02-10T00:28:34.602Z,5.50
2019-02-10T00:31:03.178Z,5.52
2019-02-10T00:33:33.252Z,5.62
2019-02-10T00:36:01.895Z,5.68
2019-02-10T00:38:30.958Z,5.71
2019-02-10T00:41:00.763Z,5.68
2019-02-10T00:43:29.267Z,5.63
2019-02-10T00:45:57.843Z,5.64
2019-02-10T00:48:26.459Z,5.60
2019-02-10T00:50:55.113Z,5.55
2019-02-10T00:53:24.209Z,5.53
2019-02-10T00:55:52.777Z,5.36
2019-02-10T00:58:21.660Z,5.44
2019-02-10T01:00:50.625Z,5.38
2019-02-10T01:03:19.789Z,5.38
2019-02-10T01:05:48.679Z,5.30
2019-02-10T01:08:17.253Z,5.35
2019-02-10T01:10:45.803Z,5.27
2019-02-10T01:13:14.425Z,5.26
2019-02-10T01:15:43.039Z,5.27
2019-02-10T01:18:11.645Z,5.25
2019-02-10T01:20:40.206Z,5.15
2019-02-10T01:23:08.786Z,5.07
2019-02-10T01:25:37.498Z,5.04
2019-02-10T01:28:06.321Z,5.01
2019-02-10T01:30:34.875Z,4.87
2019-02-10T01:33:04.081Z,4.87
2019-02-10T01:35:35.958Z,4.89
2019-02-10T01:38:04.884Z,4.87
2019-02-10T01:40:33.449Z,4.78
2019-02-10T01:43:04.730Z,4.78
2019-02-10T01:45:33.407Z,4.67
2019-02-10T01:48:05.137Z,4.67
2019-02-10T01:50:33.685Z,4.69
2019-02-10T01:53:02.277Z,4.78
2019-02-10T01:55:32.918Z,4.78
2019-02-10T01:58:03.140Z,4.70
2019-02-10T02:00:33.586Z,4.70
2019-02-10T02:03:02.321Z,4.61
2019-02-10T02:05:31.029Z,4.61
2019-02-10T02:08:02.396Z,4.54
2019-02-10T02:10:31.151Z,4.47
2019-02-10T02:12:59.804Z,4.46
2019-02-10T02:15:28.401Z,4.37
2019-02-10T02:17:56.966Z,4.37
2019-02-10T02:20:25.859Z,4.37
2019-02-10T02:22:54.428Z,4.32
2019-02-10T02:25:26.356Z,4.25
2019-02-10T02:27:54.925Z,4.22
2019-02-10T02:30:23.486Z,4.21
2019-02-10T02:32:52.445Z,4.21
2019-02-10T02:35:21.070Z,4.19
2019-02-10T02:37:49.729Z,4.28
2019-02-10T02:40:18.269Z,4.29
2019-02-10T02:42:46.886Z,4.26
2019-02-10T02:45:15.493Z,4.36
2019-02-10T02:47:44.105Z,4.38
2019-02-10T02:50:12.717Z,4.41
2019-02-10T02:52:42.754Z,4.41
2019-02-10T02:55:11.446Z,4.46
2019-02-10T02:57:40.031Z,4.39
2019-02-10T03:00:10.625Z,4.38
2019-02-10T03:02:39.171Z,4.38
2019-02-10T03:05:09.820Z,4.41
2019-02-10T03:07:38.424Z,4.41
2019-02-10T03:10:08.736Z,4.31
2019-02-10T03:12:37.381Z,4.30
2019-02-10T03:15:08.429Z,4.24
2019-02-10T03:17:36.971Z,4.14
2019-02-10T03:20:09.882Z,4.14
2019-02-10T03:22:38.434Z,4.09
2019-02-10T03:25:08.043Z,4.07
2019-02-10T03:27:36.582Z,4.10
2019-02-10T03:30:10.366Z,4.11
2019-02-10T03:32:38.921Z,4.06
2019-02-10T03:35:09.108Z,4.04
2019-02-10T03:37:37.706Z,3.98
2019-02-10T03:40:08.164Z,3.88
2019-02-10T03:42:36.828Z,3.73
2019-02-10T03:45:07.854Z,3.73
2019-02-10T03:47:36.395Z,3.76
2019-02-10T03:50:07.227Z,3.71
2019-02-10T03:52:36.152Z,3.65
2019-02-10T03:55:05.867Z,3.65
2019-02-10T03:57:34.959Z,3.54
2019-02-10T04:00:05.638Z,3.59
2019-02-10T04:02:34.261Z,3.71
2019-02-10T04:05:02.840Z,3.71
2019-02-10T04:07:36.085Z,3.69
2019-02-10T04:10:03.197Z,3.67
2019-02-10T04:12:33.259Z,3.62
2019-02-10T04:15:05.707Z,3.60
2019-02-10T04:17:34.631Z,3.51
2019-02-10T04:20:03.947Z,3.51
2019-02-10T04:22:35.389Z,3.56
2019-02-10T04:25:04.272Z,3.50
2019-02-10T04:27:33.184Z,3.50
2019-02-10T04:30:03.306Z,3.54
2019-02-10T04:32:34.929Z,3.50
2019-02-10T04:35:03.532Z,3.41
2019-02-10T04:37:32.084Z,3.38
2019-02-10T04:40:02.397Z,3.35
2019-02-10T04:42:31.310Z,3.32
2019-02-10T04:45:02.240Z,3.29
2019-02-10T04:47:30.859Z,3.22
2019-02-10T04:50:04.769Z,3.27
2019-02-10T04:52:33.391Z,3.21
2019-02-10T04:55:07.033Z,3.34
2019-02-10T04:57:35.721Z,3.34
2019-02-10T05:00:06.570Z,3.38
2019-02-10T05:02:35.242Z,3.38
2019-02-10T05:05:03.974Z,3.46
2019-02-10T05:07:35.665Z,3.50
2019-02-10T05:10:05.502Z,3.50
2019-02-10T05:12:34.292Z,3.55
2019-02-10T05:15:02.926Z,3.59
2019-02-10T05:17:31.535Z,3.60
2019-02-10T05:20:03.158Z,3.70
2019-02-10T05:22:33.386Z,3.70
2019-02-10T05:25:05.966Z,3.70
2019-02-10T05:27:34.505Z,3.70
2019-02-10T05:30:03.194Z,3.64
2019-02-10T05:32:31.942Z,3.66
2019-02-10T05:35:00.512Z,3.66
2019-02-10T05:37:29.253Z,3.64
2019-02-10T05:39:57.834Z,3.68
2019-02-10T05:42:26.542Z,3.72
2019-02-10T05:44:55.191Z,3.68
2019-02-10T05:47:26.794Z,3.78
2019-02-10T05:49:55.494Z,3.78
2019-02-10T05:52:24.054Z,3.76
2019-02-10T05:54:52.677Z,3.76
2019-02-10T05:57:22.650Z,3.81
2019-02-10T05:59:51.195Z,3.81
2019-02-10T06:02:21.405Z,3.86
2019-02-10T06:04:50.070Z,3.93
2019-02-10T06:07:18.666Z,3.97
2019-02-10T06:09:47.230Z,4.01
2019-02-10T06:12:15.803Z,4.03
2019-02-10T06:14:44.432Z,4.12
2019-02-10T06:17:13.097Z,4.12
2019-02-10T06:19:41.980Z,4.19
2019-02-10T06:22:10.953Z,4.17
2019-02-10T06:24:39.936Z,4.21
2019-02-10T06:27:08.856Z,4.28
2019-02-10T06:29:37.412Z,4.28
2019-02-10T06:32:05.994Z,4.29
2019-02-10T06:34:34.554Z,4.32
2019-02-10T06:37:03.130Z,4.41
2019-02-10T06:39:33.608Z,4.41
2019-02-10T06:42:02.315Z,4.36
2019-02-10T06:44:30.873Z,4.36
2019-02-10T06:46:59.539Z,4.36
2019-02-10T06:49:28.067Z,4.36
2019-02-10T06:51:56.818Z,4.30
2019-02-10T06:54:25.917Z,4.38
2019-02-10T06:56:54.494Z,4.38
2019-02-10T06:59:24.686Z,4.49
2019-02-10T07:04:37.292Z,4.52
2019-02-10T07:07:06.028Z,4.52
2019-02-10T07:09:37.483Z,4.48
2019-02-10T07:12:28.748Z,4.55
2019-02-10T07:15:00.418Z,4.55
2019-02-10T07:17:31.621Z,4.54
2019-02-10T07:20:38.536Z,4.62
2019-02-10T07:23:43.513Z,4.62
2019-02-10T07:26:14.267Z,4.66
2019-02-10T07:28:42.841Z,4.74
2019-02-10T07:31:11.532Z,4.74
2019-02-10T07:34:04.091Z,4.81
2019-02-10T07:37:10.921Z,4.89
2019-02-10T07:39:57.710Z,4.95
2019-02-10T07:42:37.971Z,4.95
2019-02-10T07:45:15.530Z,4.92
2019-02-10T07:47:50.136Z,5.17
2019-02-10T07:50:27.475Z,5.17
2019-02-10T07:53:02.120Z,5.09
2019-02-10T07:59:11.032Z,5.26
2019-02-10T08:02:01.520Z,5.26
2019-02-10T08:04:39.221Z,5.32
2019-02-10T08:07:17.559Z,5.43
2019-02-10T08:10:04.309Z,5.43
2019-02-10T08:12:38.907Z,5.47
2019-02-10T08:15:13.144Z,5.54
2019-02-10T08:17:47.514Z,5.68
2019-02-10T08:20:46.963Z,5.70
2019-02-10T08:23:27.226Z,5.75
2019-02-10T08:26:04.707Z,5.67
2019-02-10T08:28:39.004Z,5.42
2019-02-10T08:31:34.280Z,5.42
2019-02-10T08:34:26.457Z,5.45
2019-02-10T08:37:31.793Z,5.39
2019-02-10T08:40:15.212Z,5.35
2019-02-10T08:42:46.831Z,5.26
2019-02-10T08:45:45.063Z,5.18
2019-02-10T08:48:19.532Z,5.21
2019-02-10T08:50:53.874Z,5.17
2019-02-10T08:53:24.787Z,5.19
2019-02-10T08:55:53.332Z,5.26
2019-02-10T08:58:21.895Z,5.26
2019-02-10T09:00:50.445Z,5.17
2019-02-10T09:03:19.846Z,4.99
2019-02-10T09:05:48.557Z,5.04
2019-02-10T09:08:17.127Z,5.04
2019-02-10T09:10:45.699Z,4.99
2019-02-10T09:13:14.316Z,4.99
2019-02-10T09:15:43.272Z,4.83
2019-02-10T09:18:11.981Z,4.83
2019-02-10T09:20:40.929Z,4.73
2019-02-10T09:23:09.472Z,4.73
2019-02-10T09:25:38.050Z,4.77
2019-02-10T09:28:06.619Z,4.77
2019-02-10T09:30:35.180Z,4.79
2019-02-10T09:33:04.146Z,4.81
2019-02-10T09:35:33.061Z,4.81
2019-02-10T09:38:03.327Z,4.78
2019-02-10T09:40:34.676Z,4.79
2019-02-10T09:43:03.247Z,4.87
2019-02-10T09:45:33.335Z,4.89
2019-02-10T09:48:05.051Z,4.82
2019-02-10T09:50:33.630Z,4.83
2019-02-10T09:53:02.187Z,4.83
2019-02-10T09:55:32.577Z,4.82
2019-02-10T09:58:03.796Z,4.91
2019-02-10T10:00:33.903Z,4.88
2019-02-10T10:03:04.002Z,4.87
2019-02-10T10:05:35.472Z,4.87
2019-02-10T10:08:04.020Z,4.95
2019-02-10T10:10:35.373Z,4.96
2019-02-10T10:13:03.994Z,4.95
2019-02-10T10:15:33.137Z,5.03
2019-02-10T10:18:02.158Z,5.02
2019-02-10T10:20:32.473Z,5.11
2019-02-10T10:23:01.539Z,5.11
2019-02-10T10:25:30.520Z,5.21
2019-02-10T10:27:59.040Z,5.18
2019-02-10T10:30:27.611Z,5.21
2019-02-10T10:32:56.166Z,5.28
2019-02-10T10:35:24.744Z,5.42
2019-02-10T10:37:53.299Z,5.42
2019-02-10T10:40:21.944Z,5.38
2019-02-10T10:42:50.641Z,5.39
2019-02-10T10:45:20.652Z,5.45
2019-02-10T10:47:49.209Z,5.38
2019-02-10T10:50:18.171Z,5.42
2019-02-10T10:52:46.919Z,5.42
2019-02-10T10:55:15.804Z,5.49
2019-02-10T10:57:44.762Z,5.53
2019-02-10T11:00:15.253Z,5.59
2019-02-10T11:02:43.860Z,5.59
2019-02-10T11:05:12.622Z,5.48
2019-02-10T11:07:41.996Z,5.56
2019-02-10T11:10:12.891Z,5.53
2019-02-10T11:12:41.455Z,5.60
2019-02-10T11:15:15.055Z,5.57
2019-02-10T11:17:43.638Z,5.64
2019-02-10T11:20:12.725Z,5.68
2019-02-10T11:22:41.361Z,5.69
2019-02-10T11:25:11.841Z,5.80
2019-02-10T11:27:40.394Z,5.74
2019-02-10T11:30:14.672Z,5.71
2019-02-10T11:32:43.268Z,5.76
2019-02-10T11:35:12.139Z,5.84
2019-02-10T11:37:41.419Z,5.84
2019-02-10T11:40:33.744Z,5.83
2019-02-10T11:43:04.230Z,5.87
2019-02-10T11:45:33.731Z,5.93
2019-02-10T11:48:03.972Z,5.95
2019-02-10T11:50:35.475Z,5.99
2019-02-10T11:53:04.424Z,6.01
2019-02-10T11:55:33.371Z,6.04
2019-02-10T11:58:02.680Z,6.06
2019-02-10T12:00:32.183Z,6.05
2019-02-10T12:03:02.815Z,6.05
2019-02-10T12:05:34.080Z,6.10
2019-02-10T12:08:05.280Z,6.12
2019-02-10T12:10:35.787Z,6.16
2019-02-10T12:13:05.424Z,6.20
2019-02-10T12:15:34.772Z,6.27
2019-02-10T12:18:03.588Z,6.27
2019-02-10T12:20:33.127Z,6.24
2019-02-10T12:23:04.187Z,6.26
2019-02-10T12:25:33.475Z,6.27
2019-02-10T12:28:02.694Z,6.28
2019-02-10T12:30:34.454Z,6.28
2019-02-10T12:33:03.052Z,6.32
2019-02-10T12:35:33.478Z,6.33
2019-02-10T12:38:02.394Z,6.38
2019-02-10T12:40:30.936Z,6.41
2019-02-10T12:43:03.850Z,6.44
2019-02-10T12:45:32.372Z,6.41
2019-02-10T12:48:00.971Z,6.48
2019-02-10T12:50:29.772Z,6.41
2019-02-10T12:52:58.347Z,6.41
2019-02-10T12:55:27.352Z,6.44
2019-02-10T12:57:56.411Z,6.45
2019-02-10T13:00:24.994Z,6.48
2019-02-10T13:02:53.547Z,6.49
2019-02-10T13:05:22.123Z,6.55
2019-02-10T13:07:50.687Z,6.56
2019-02-10T13:10:19.333Z,6.70
2019-02-10T13:12:47.869Z,6.66
2019-02-10T13:15:16.457Z,6.61
2019-02-10T13:17:45.004Z,6.65
2019-02-10T13:20:14.049Z,6.55
2019-02-10T13:22:42.745Z,6.56
2019-02-10T13:25:14.921Z,6.50
2019-02-10T13:27:43.554Z,6.61
2019-02-10T13:30:15.127Z,6.51
2019-02-10T13:32:43.754Z,6.52
2019-02-10T13:35:12.466Z,6.44
2019-02-10T13:37:41.360Z,6.46
2019-02-10T13:40:16.999Z,6.44
2019-02-10T13:42:45.925Z,6.43
2019-02-10T13:45:14.590Z,6.43
2019-02-10T13:47:43.488Z,6.33
2019-02-10T13:50:17.097Z,6.33
2019-02-10T13:52:45.938Z,6.34
2019-02-10T13:55:15.713Z,6.35
2019-02-10T13:57:44.327Z,6.32
2019-02-10T14:00:15.539Z,6.38
2019-02-10T14:02:44.090Z,6.35
2019-02-10T14:05:12.731Z,6.37
2019-02-10T14:07:41.300Z,6.39
2019-02-10T14:10:13.563Z,6.37
2019-02-10T14:12:42.124Z,6.40
2019-02-10T14:15:13.195Z,6.33
2019-02-10T14:17:41.982Z,6.41
2019-02-10T14:20:18.612Z,6.32
2019-02-10T14:22:47.163Z,6.32
2019-02-10T14:25:15.894Z,6.35
2019-02-10T14:27:44.913Z,6.27
2019-02-10T14:30:24.386Z,6.38
2019-02-10T14:32:52.998Z,6.31
2019-02-10T14:35:23.636Z,6.30
2019-02-10T14:37:53.825Z,6.28
2019-02-10T14:40:24.379Z,6.26
2019-02-10T14:42:55.593Z,6.32
2019-02-10T14:45:27.288Z,6.29
2019-02-10T14:47:56.210Z,6.34
2019-02-10T14:50:24.837Z,6.38
2019-02-10T14:52:54.893Z,6.35
2019-02-10T14:55:25.339Z,6.35
2019-02-10T14:57:53.943Z,6.30
2019-02-10T15:00:22.515Z,6.32
2019-02-10T15:02:52.351Z,6.30
2019-02-10T15:05:22.921Z,6.30
2019-02-10T15:07:51.504Z,6.31
2019-02-10T15:10:21.313Z,6.26
2019-02-10T15:12:49.858Z,6.33
2019-02-10T15:15:18.807Z,6.28
2019-02-10T15:17:47.371Z,6.28
2019-02-10T15:20:15.957Z,6.29
2019-02-10T15:22:44.634Z,6.30
2019-02-10T15:25:14.442Z,6.24
2019-02-10T15:27:44.612Z,6.23
2019-02-10T15:30:15.433Z,6.32
2019-02-10T15:32:44.013Z,6.27
2019-02-10T15:35:18.408Z,6.27
2019-02-10T15:37:47.247Z,6.24
2019-02-10T15:40:15.804Z,6.23
2019-02-10T15:42:44.377Z,6.27
2019-02-10T15:45:13.968Z,6.23
2019-02-10T15:47:43.049Z,6.24
2019-02-10T15:50:13.045Z,6.25
2019-02-10T15:52:41.618Z,6.26
2019-02-10T15:55:14.520Z,6.26
2019-02-10T15:57:43.092Z,6.33
2019-02-10T16:00:26.614Z,6.33
2019-02-10T16:02:55.203Z,6.34
2019-02-10T16:05:23.748Z,6.33
2019-02-10T16:07:54.029Z,6.41
2019-02-10T16:10:22.576Z,6.33
2019-02-10T16:12:51.542Z,6.40
2019-02-10T16:15:20.091Z,6.40
2019-02-10T16:17:48.691Z,6.38
2019-02-10T16:20:17.243Z,6.41
2019-02-10T16:22:45.826Z,6.40
2019-02-10T16:25:14.795Z,6.37
2019-02-10T16:27:43.686Z,6.45
2019-02-10T16:30:18.053Z,6.46
2019-02-10T16:32:50.003Z,6.41
2019-02-10T16:35:17.036Z,6.44
2019-02-10T16:37:45.602Z,6.48
2019-02-10T16:40:19.286Z,6.46
2019-02-10T16:42:47.857Z,6.44
2019-02-10T16:45:16.482Z,6.48
2019-02-10T16:47:45.072Z,6.49
2019-02-10T16:50:14.951Z,6.50
2019-02-10T16:52:43.522Z,6.55
2019-02-10T16:55:17.187Z,6.54
2019-02-10T16:57:45.762Z,6.63
2019-02-10T17:00:15.751Z,6.62
2019-02-10T17:02:44.403Z,6.68
2019-02-10T17:05:14.108Z,6.67
2019-02-10T17:07:42.697Z,6.70
2019-02-10T17:10:18.728Z,6.77
2019-02-10T17:12:47.674Z,6.76
2019-02-10T17:15:16.234Z,6.70
2019-02-10T17:17:44.809Z,6.70
2019-02-10T17:20:14.408Z,6.69
2019-02-10T17:22:43.355Z,6.76
2019-02-10T17:25:24.098Z,6.81
2019-02-10T17:27:52.664Z,6.75
2019-02-10T17:30:22.602Z,6.81
2019-02-10T17:32:52.993Z,6.79
2019-02-10T17:35:23.636Z,6.83
2019-02-10T17:37:52.554Z,6.91
2019-02-10T17:40:37.569Z,6.86
2019-02-10T17:43:06.139Z,6.84
2019-02-10T17:45:34.685Z,6.91
2019-02-10T17:48:03.300Z,6.91
2019-02-10T17:50:31.876Z,6.93
2019-02-10T17:53:00.425Z,6.93
2019-02-10T17:55:28.997Z,6.91
2019-02-10T17:57:57.973Z,6.90
2019-02-10T18:00:28.187Z,6.91
2019-02-10T18:02:56.744Z,6.90
2019-02-10T18:05:25.663Z,6.94
2019-02-10T18:07:55.752Z,6.95
2019-02-10T18:10:27.087Z,6.89
2019-02-10T18:12:55.634Z,6.91
2019-02-10T18:15:43.672Z,6.88
2019-02-10T18:18:30.082Z,6.89
2019-02-10T18:21:16.779Z,6.92
2019-02-10T18:23:47.004Z,7.01
2019-02-10T18:26:29.069Z,7.01
2019-02-10T18:29:05.159Z,7.06
2019-02-10T18:31:35.345Z,7.07
2019-02-10T18:34:14.190Z,7.07
2019-02-10T18:36:47.351Z,7.10
2019-02-10T18:39:26.489Z,7.16
2019-02-10T18:42:20.626Z,7.18
2019-02-10T18:44:53.507Z,7.27
2019-02-10T18:47:35.844Z,7.27
2019-02-10T18:50:08.002Z,7.29
2019-02-10T18:52:38.198Z,7.40
2019-02-10T18:55:08.649Z,7.41
2019-02-10T18:57:47.773Z,7.34
2019-02-10T19:00:34.491Z,7.27
2019-02-10T19:03:13.442Z,7.25
2019-02-10T19:05:55.514Z,7.27
2019-02-10T19:08:32.945Z,7.35
2019-02-10T19:11:09.657Z,7.44
2019-02-10T19:13:39.835Z,7.47
2019-02-10T19:16:10.420Z,7.53
2019-02-10T19:18:55.280Z,7.60
2019-02-10T19:21:28.245Z,7.63
2019-02-10T19:24:01.190Z,7.65
2019-02-10T19:26:49.171Z,7.66
2019-02-10T19:29:22.368Z,7.73
2019-02-10T19:31:56.454Z,7.79
2019-02-10T19:34:41.972Z,7.80
2019-02-10T19:37:12.193Z,7.81
2019-02-10T19:39:42.386Z,7.81
2019-02-10T19:42:18.889Z,7.82
2019-02-10T19:44:58.119Z,7.87
2019-02-10T19:47:28.848Z,7.93
2019-02-10T19:49:59.051Z,7.93
2019-02-10T19:52:29.249Z,7.99
2019-02-10T19:54:59.503Z,7.99
2019-02-10T19:57:35.472Z,8.05
2019-02-10T20:00:13.171Z,8.07
2019-02-10T20:03:00.251Z,8.08
2019-02-10T20:05:42.264Z,7.98
2019-02-10T20:08:18.270Z,7.93
2019-02-10T20:10:48.960Z,7.85
2019-02-10T20:13:19.530Z,7.75
2019-02-10T20:15:50.093Z,7.74
2019-02-10T20:18:20.371Z,7.71
2019-02-10T20:20:53.775Z,7.61
2019-02-10T20:23:39.765Z,7.50
2019-02-10T20:26:40.145Z,7.56
2019-02-10T20:29:13.607Z,7.62
2019-02-10T20:31:49.718Z,7.62
2019-02-10T20:34:26.694Z,7.66
2019-02-10T20:37:15.901Z,7.70
2019-02-10T20:40:02.663Z,7.70
2019-02-10T20:42:39.168Z,7.72
2019-02-10T20:45:12.485Z,7.70
2019-02-10T20:47:58.531Z,7.76
2019-02-10T20:50:38.624Z,7.75
2019-02-10T20:53:08.798Z,7.80
2019-02-10T20:55:39.010Z,7.90
2019-02-10T20:58:09.212Z,7.90
2019-02-10T21:00:40.132Z,7.91
2019-02-10T21:03:19.241Z,7.96
2019-02-10T21:06:07.564Z,8.00
2019-02-10T21:08:40.712Z,7.94
2019-02-10T21:11:20.101Z,7.87
2019-02-10T21:13:50.311Z,7.87
2019-02-10T21:16:29.387Z,7.86
2019-02-10T21:19:17.968Z,7.76
2019-02-10T21:24:39.100Z,7.61
2019-02-10T21:27:18.547Z,7.55
2019-02-10T21:29:57.834Z,7.56
2019-02-10T21:32:36.889Z,7.42
2019-02-10T21:35:17.112Z,7.41
2019-02-10T21:37:50.432Z,7.38
2019-02-10T21:40:26.472Z,7.34
2019-02-10T21:42:56.723Z,7.28
2019-02-10T21:45:30.120Z,7.17
2019-02-10T21:48:00.405Z,7.15
2019-02-10T21:50:29.090Z,7.04
2019-02-10T21:52:57.726Z,7.00
2019-02-10T21:55:26.274Z,6.89
2019-02-10T21:57:54.826Z,6.85
2019-02-10T22:00:25.275Z,6.80
2019-02-10T22:02:53.899Z,6.70
2019-02-10T22:05:24.692Z,6.73
2019-02-10T22:07:54.824Z,6.69
2019-02-10T22:10:24.912Z,6.72
2019-02-10T22:12:55.047Z,6.74
2019-02-10T22:15:27.062Z,6.74
2019-02-10T22:17:55.659Z,6.65
2019-02-10T22:20:25.764Z,6.58
2019-02-10T22:22:57.435Z,6.53
2019-02-10T22:25:25.999Z,6.49
2019-02-10T22:27:54.534Z,6.42
2019-02-10T22:30:23.247Z,6.41
2019-02-10T22:32:52.897Z,6.49
2019-02-10T22:35:23.401Z,6.39
2019-02-10T22:37:54.878Z,6.41
2019-02-10T22:40:24.960Z,6.38
2019-02-10T22:42:56.337Z,6.38
2019-02-10T22:45:24.900Z,6.32
2019-02-10T22:47:54.980Z,6.27
2019-02-10T22:50:26.656Z,6.26
2019-02-10T22:52:55.201Z,6.29
2019-02-10T22:55:23.777Z,6.25
2019-02-10T22:57:53.959Z,6.16
2019-02-10T23:00:36.306Z,6.05
2019-02-10T23:03:05.279Z,6.06
2019-02-10T23:05:34.184Z,6.01
2019-02-10T23:08:03.111Z,6.12
2019-02-10T23:10:32.195Z,6.16
2019-02-10T23:13:00.742Z,6.21
2019-02-10T23:15:29.653Z,6.25
2019-02-10T23:17:58.209Z,6.29
2019-02-10T23:20:26.778Z,6.27
2019-02-10T23:22:55.322Z,6.30
2019-02-10T23:25:23.896Z,6.26
2019-02-10T23:27:54.181Z,6.19
2019-02-10T23:30:22.821Z,6.21
2019-02-10T23:32:51.379Z,6.26
2019-02-10T23:35:20.330Z,6.24
2019-02-10T23:37:48.900Z,6.22
2019-02-10T23:40:17.456Z,6.19
2019-02-10T23:42:46.011Z,6.22
2019-02-10T23:45:14.568Z,6.24
2019-02-10T23:47:43.525Z,6.25
2019-02-10T23:50:12.401Z,6.19
2019-02-10T23:52:40.952Z,6.18
2019-02-10T23:55:12.279Z,6.20
2019-02-10T23:57:40.846Z,6.18
